sensor_id;sensor_type;location;lat;lon;timestamp;pressure;altitude;pressure_sealevel;temperature;humidity
53932;BME280;39844;52.496;13.482;2023-05-16T00:01:33;100617.09;;;14.67;79.01
53932;BME280;39844;52.496;13.482;2023-05-16T00:03:58;100622.38;;;14.67;79.46
53932;BME280;39844;52.496;13.482;2023-05-16T00:06:23;100618.91;;;14.65;79.21
53932;BME280;39844;52.496;13.482;2023-05-16T00:08:49;100617.09;;;14.67;79.87
53932;BME280;39844;52.496;13.482;2023-05-16T00:11:16;100627.75;;;14.64;79.44
53932;BME280;39844;52.496;13.482;2023-05-16T00:13:41;100628.59;;;14.65;79.40
53932;BME280;39844;52.496;13.482;2023-05-16T00:16:07;100640.88;;;14.67;79.25
53932;BME280;39844;52.496;13.482;2023-05-16T00:18:32;100641.75;;;14.68;78.66
53932;BME280;39844;52.496;13.482;2023-05-16T00:20:58;100642.63;;;14.68;77.92
53932;BME280;39844;52.496;13.482;2023-05-16T00:23:23;100640.84;;;14.69;78.07
53932;BME280;39844;52.496;13.482;2023-05-16T00:25:48;100637.31;;;14.68;77.23
53932;BME280;39844;52.496;13.482;2023-05-16T00:28:14;100643.50;;;14.69;77.76
53932;BME280;39844;52.496;13.482;2023-05-16T00:30:39;100635.53;;;14.70;78.26
53932;BME280;39844;52.496;13.482;2023-05-16T00:33:04;100635.53;;;14.70;78.13
53932;BME280;39844;52.496;13.482;2023-05-16T00:35:29;100639.09;;;14.69;79.60
53932;BME280;39844;52.496;13.482;2023-05-16T00:37:55;100640.91;;;14.66;78.91
53932;BME280;39844;52.496;13.482;2023-05-16T00:40:20;100637.50;;;14.61;79.30
53932;BME280;39844;52.496;13.482;2023-05-16T00:42:45;100634.97;;;14.56;79.26
53932;BME280;39844;52.496;13.482;2023-05-16T00:45:11;100640.25;;;14.54;80.47
53932;BME280;39844;52.496;13.482;2023-05-16T00:47:36;100647.41;;;14.51;80.31
53932;BME280;39844;52.496;13.482;2023-05-16T00:50:02;100639.53;;;14.48;79.90
53932;BME280;39844;52.496;13.482;2023-05-16T00:52:27;100651.00;;;14.47;80.83
53932;BME280;39844;52.496;13.482;2023-05-16T00:54:53;100659.88;;;14.43;80.23
53932;BME280;39844;52.496;13.482;2023-05-16T00:57:18;100660.81;;;14.40;80.97
53932;BME280;39844;52.496;13.482;2023-05-16T00:59:45;100657.34;;;14.38;81.74
53932;BME280;39844;52.496;13.482;2023-05-16T01:02:12;100660.88;;;14.39;82.22
53932;BME280;39844;52.496;13.482;2023-05-16T01:04:38;100665.38;;;14.34;81.31
53932;BME280;39844;52.496;13.482;2023-05-16T01:07:03;100663.66;;;14.30;82.35
53932;BME280;39844;52.496;13.482;2023-05-16T01:09:29;100667.22;;;14.27;82.51
53932;BME280;39844;52.496;13.482;2023-05-16T01:17:16;100675.47;;;14.11;83.67
53932;BME280;39844;52.496;13.482;2023-05-16T01:22:37;100681.69;;;14.07;85.70
53932;BME280;39844;52.496;13.482;2023-05-16T01:25:24;100678.31;;;14.00;85.70
53932;BME280;39844;52.496;13.482;2023-05-16T01:27:51;100688.88;;;13.99;85.98
53932;BME280;39844;52.496;13.482;2023-05-16T01:30:18;100694.28;;;13.92;85.48
53932;BME280;39844;52.496;13.482;2023-05-16T01:32:44;100704.06;;;13.86;86.13
53932;BME280;39844;52.496;13.482;2023-05-16T01:35:12;100698.09;;;13.78;87.59
53932;BME280;39844;52.496;13.482;2023-05-16T01:37:51;100699.94;;;13.71;87.38
53932;BME280;39844;52.496;13.482;2023-05-16T01:43:12;100708.94;;;13.58;88.14
53932;BME280;39844;52.496;13.482;2023-05-16T01:45:42;100708.19;;;13.50;88.29
53932;BME280;39844;52.496;13.482;2023-05-16T01:48:22;100710.81;;;13.50;89.76
53932;BME280;39844;52.496;13.482;2023-05-16T01:50:53;100731.13;;;13.45;88.75
53932;BME280;39844;52.496;13.482;2023-05-16T01:53:24;100728.56;;;13.42;89.08
53932;BME280;39844;52.496;13.482;2023-05-16T01:55:51;100735.69;;;13.37;88.59
53932;BME280;39844;52.496;13.482;2023-05-16T01:58:19;100744.50;;;13.33;88.95
53932;BME280;39844;52.496;13.482;2023-05-16T02:00:45;100742.78;;;13.30;88.94
53932;BME280;39844;52.496;13.482;2023-05-16T02:03:11;100743.75;;;13.26;87.62
53932;BME280;39844;52.496;13.482;2023-05-16T02:05:36;100748.16;;;13.23;87.73
53932;BME280;39844;52.496;13.482;2023-05-16T02:08:01;100750.00;;;13.18;87.76
53932;BME280;39844;52.496;13.482;2023-05-16T02:10:27;100748.31;;;13.14;87.42
53932;BME280;39844;52.496;13.482;2023-05-16T02:12:53;100759.81;;;13.08;87.12
53932;BME280;39844;52.496;13.482;2023-05-16T02:15:18;100756.34;;;13.02;86.76
53932;BME280;39844;52.496;13.482;2023-05-16T02:17:43;100774.00;;;12.95;86.42
53932;BME280;39844;52.496;13.482;2023-05-16T02:20:09;100769.66;;;12.90;86.55
53932;BME280;39844;52.496;13.482;2023-05-16T02:22:35;100778.44;;;12.92;88.30
53932;BME280;39844;52.496;13.482;2023-05-16T02:25:01;100789.88;;;12.91;88.00
53932;BME280;39844;52.496;13.482;2023-05-16T02:27:27;100782.88;;;12.87;87.64
53932;BME280;39844;52.496;13.482;2023-05-16T02:29:53;100795.19;;;12.85;87.01
53932;BME280;39844;52.496;13.482;2023-05-16T02:32:18;100790.09;;;12.73;86.11
53932;BME280;39844;52.496;13.482;2023-05-16T02:34:43;100792.78;;;12.68;86.56
53932;BME280;39844;52.496;13.482;2023-05-16T02:37:08;100799.84;;;12.64;86.75
53932;BME280;39844;52.496;13.482;2023-05-16T02:39:34;100797.25;;;12.60;85.40
53932;BME280;39844;52.496;13.482;2023-05-16T02:41:59;100808.72;;;12.54;86.67
53932;BME280;39844;52.496;13.482;2023-05-16T02:44:24;100805.25;;;12.51;85.89
53932;BME280;39844;52.496;13.482;2023-05-16T02:46:50;100813.19;;;12.46;85.97
53932;BME280;39844;52.496;13.482;2023-05-16T02:49:15;100810.63;;;12.40;85.69
53932;BME280;39844;52.496;13.482;2023-05-16T02:51:40;100810.66;;;12.37;85.71
53932;BME280;39844;52.496;13.482;2023-05-16T02:54:05;100809.81;;;12.35;85.78
53932;BME280;39844;52.496;13.482;2023-05-16T02:56:31;100817.72;;;12.32;85.51
53932;BME280;39844;52.496;13.482;2023-05-16T02:58:56;100822.97;;;12.35;87.27
53932;BME280;39844;52.496;13.482;2023-05-16T03:01:21;100819.47;;;12.35;86.84
53932;BME280;39844;52.496;13.482;2023-05-16T03:03:47;100822.91;;;12.38;86.46
53932;BME280;39844;52.496;13.482;2023-05-16T03:06:12;100828.19;;;12.38;86.88
53932;BME280;39844;52.496;13.482;2023-05-16T03:08:37;100829.09;;;12.36;86.36
53932;BME280;39844;52.496;13.482;2023-05-16T03:11:02;100835.22;;;12.36;86.58
53932;BME280;39844;52.496;13.482;2023-05-16T03:13:28;100827.34;;;12.33;85.86
53932;BME280;39844;52.496;13.482;2023-05-16T03:15:53;100838.78;;;12.32;86.13
53932;BME280;39844;52.496;13.482;2023-05-16T03:18:18;100845.84;;;12.30;85.57
53932;BME280;39844;52.496;13.482;2023-05-16T03:20:44;100847.59;;;12.27;85.54
53932;BME280;39844;52.496;13.482;2023-05-16T03:23:09;100842.34;;;12.27;86.21
53932;BME280;39844;52.496;13.482;2023-05-16T03:25:34;100851.16;;;12.24;86.43
53932;BME280;39844;52.496;13.482;2023-05-16T03:28:00;100856.41;;;12.24;85.84
53932;BME280;39844;52.496;13.482;2023-05-16T03:30:25;100854.69;;;12.20;86.65
53932;BME280;39844;52.496;13.482;2023-05-16T03:32:51;100859.03;;;12.24;87.05
53932;BME280;39844;52.496;13.482;2023-05-16T03:35:16;100851.16;;;12.21;86.63
53932;BME280;39844;52.496;13.482;2023-05-16T03:37:42;100856.44;;;12.18;87.02
53932;BME280;39844;52.496;13.482;2023-05-16T03:40:07;100856.44;;;12.21;87.48
53932;BME280;39844;52.496;13.482;2023-05-16T03:42:33;100863.44;;;12.25;87.01
53932;BME280;39844;52.496;13.482;2023-05-16T03:44:58;100864.34;;;12.20;86.36
53932;BME280;39844;52.496;13.482;2023-05-16T03:47:23;100856.44;;;12.18;86.76
53932;BME280;39844;52.496;13.482;2023-05-16T03:49:49;100867.88;;;12.17;87.56
53932;BME280;39844;52.496;13.482;2023-05-16T03:52:14;100868.75;;;12.16;86.58
53932;BME280;39844;52.496;13.482;2023-05-16T03:54:39;100866.16;;;12.15;87.50
53932;BME280;39844;52.496;13.482;2023-05-16T03:57:04;100859.13;;;12.11;86.53
53932;BME280;39844;52.496;13.482;2023-05-16T03:59:30;100863.56;;;12.10;87.23
53932;BME280;39844;52.496;13.482;2023-05-16T04:01:55;100868.78;;;12.13;88.45
53932;BME280;39844;52.496;13.482;2023-05-16T04:04:20;100877.56;;;12.12;87.57
53932;BME280;39844;52.496;13.482;2023-05-16T04:06:46;100881.06;;;12.13;87.63
53932;BME280;39844;52.496;13.482;2023-05-16T04:09:11;100881.06;;;12.14;88.47
53932;BME280;39844;52.496;13.482;2023-05-16T04:11:36;100884.56;;;12.13;87.94
53932;BME280;39844;52.496;13.482;2023-05-16T04:14:01;100892.50;;;12.09;86.40
53932;BME280;39844;52.496;13.482;2023-05-16T04:16:27;100898.66;;;12.03;87.66
53932;BME280;39844;52.496;13.482;2023-05-16T04:18:52;100893.41;;;12.00;87.10
53932;BME280;39844;52.496;13.482;2023-05-16T04:21:17;100912.75;;;11.96;88.41
53932;BME280;39844;52.496;13.482;2023-05-16T04:23:43;100916.31;;;11.89;87.67
53932;BME280;39844;52.496;13.482;2023-05-16T04:26:08;100923.34;;;11.87;88.48
53932;BME280;39844;52.496;13.482;2023-05-16T04:28:33;100926.84;;;11.89;89.12
53932;BME280;39844;52.496;13.482;2023-05-16T04:30:59;100925.13;;;11.82;87.92
53932;BME280;39844;52.496;13.482;2023-05-16T04:33:25;100924.25;;;11.80;89.29
53932;BME280;39844;52.496;13.482;2023-05-16T04:35:50;100918.13;;;11.75;88.52
53932;BME280;39844;52.496;13.482;2023-05-16T04:38:15;100919.03;;;11.74;89.58
53932;BME280;39844;52.496;13.482;2023-05-16T04:40:41;100933.88;;;11.81;91.03
53932;BME280;39844;52.496;13.482;2023-05-16T04:43:06;100929.53;;;11.78;88.74
53932;BME280;39844;52.496;13.482;2023-05-16T04:45:31;100947.94;;;11.72;87.74
53932;BME280;39844;52.496;13.482;2023-05-16T04:47:57;100949.69;;;11.67;87.55
53932;BME280;39844;52.496;13.482;2023-05-16T04:50:22;100945.34;;;11.60;89.06
53932;BME280;39844;52.496;13.482;2023-05-16T04:52:48;100952.34;;;11.63;90.78
53932;BME280;39844;52.496;13.482;2023-05-16T04:55:13;100958.47;;;11.65;89.93
53932;BME280;39844;52.496;13.482;2023-05-16T04:57:38;100969.88;;;11.65;90.04
53932;BME280;39844;52.496;13.482;2023-05-16T05:00:07;100964.66;;;11.59;89.02
53932;BME280;39844;52.496;13.482;2023-05-16T05:02:32;100963.78;;;11.56;87.88
53932;BME280;39844;52.496;13.482;2023-05-16T05:04:57;100971.69;;;11.53;89.59
53932;BME280;39844;52.496;13.482;2023-05-16T05:07:23;100993.56;;;11.55;89.85
53932;BME280;39844;52.496;13.482;2023-05-16T05:09:48;100990.09;;;11.50;87.89
53932;BME280;39844;52.496;13.482;2023-05-16T05:12:13;100990.09;;;11.47;88.61
53932;BME280;39844;52.496;13.482;2023-05-16T05:14:39;100990.13;;;11.43;89.17
53932;BME280;39844;52.496;13.482;2023-05-16T05:17:04;100993.63;;;11.42;88.31
53932;BME280;39844;52.496;13.482;2023-05-16T05:19:29;101002.38;;;11.41;88.86
53932;BME280;39844;52.496;13.482;2023-05-16T05:21:54;101010.28;;;11.38;88.45
53932;BME280;39844;52.496;13.482;2023-05-16T05:24:20;101019.91;;;11.39;88.96
53932;BME280;39844;52.496;13.482;2023-05-16T05:26:45;101019.06;;;11.36;88.39
53932;BME280;39844;52.496;13.482;2023-05-16T05:29:10;101013.78;;;11.37;89.92
53932;BME280;39844;52.496;13.482;2023-05-16T05:31:36;101021.66;;;11.37;88.58
53932;BME280;39844;52.496;13.482;2023-05-16T05:34:02;101028.69;;;11.32;88.44
53932;BME280;39844;52.496;13.482;2023-05-16T05:36:27;101026.94;;;11.34;90.82
53932;BME280;39844;52.496;13.482;2023-05-16T05:38:52;101035.69;;;11.36;89.42
53932;BME280;39844;52.496;13.482;2023-05-16T05:41:18;101035.69;;;11.38;89.03
53932;BME280;39844;52.496;13.482;2023-05-16T05:43:43;101050.56;;;11.42;88.73
53932;BME280;39844;52.496;13.482;2023-05-16T05:46:08;101043.53;;;11.44;88.35
53932;BME280;39844;52.496;13.482;2023-05-16T05:48:34;101041.78;;;11.48;88.57
53932;BME280;39844;52.496;13.482;2023-05-16T05:50:59;101046.19;;;11.47;88.55
53932;BME280;39844;52.496;13.482;2023-05-16T05:53:24;101048.81;;;11.46;88.16
53932;BME280;39844;52.496;13.482;2023-05-16T05:55:50;101054.94;;;11.54;89.48
53932;BME280;39844;52.496;13.482;2023-05-16T05:58:15;101055.81;;;11.56;87.52
53932;BME280;39844;52.496;13.482;2023-05-16T06:00:40;101058.44;;;11.59;87.69
53932;BME280;39844;52.496;13.482;2023-05-16T06:03:06;101055.81;;;11.59;86.60
53932;BME280;39844;52.496;13.482;2023-05-16T06:05:31;101063.69;;;11.56;86.67
53932;BME280;39844;52.496;13.482;2023-05-16T06:07:56;101054.06;;;11.52;85.56
53932;BME280;39844;52.496;13.482;2023-05-16T06:10:21;101062.81;;;11.55;86.28
53932;BME280;39844;52.496;13.482;2023-05-16T06:12:47;101060.16;;;11.60;85.61
53932;BME280;39844;52.496;13.482;2023-05-16T06:15:12;101062.81;;;11.61;84.68
53932;BME280;39844;52.496;13.482;2023-05-16T06:17:37;101063.69;;;11.62;83.33
53932;BME280;39844;52.496;13.482;2023-05-16T06:20:03;101074.19;;;11.62;81.71
53932;BME280;39844;52.496;13.482;2023-05-16T06:22:28;101068.94;;;11.62;80.98
53932;BME280;39844;52.496;13.482;2023-05-16T06:24:54;101072.41;;;11.62;81.00
53932;BME280;39844;52.496;13.482;2023-05-16T06:27:19;101066.31;;;11.63;80.56
53932;BME280;39844;52.496;13.482;2023-05-16T06:29:44;101068.91;;;11.65;81.04
53932;BME280;39844;52.496;13.482;2023-05-16T06:32:09;101067.16;;;11.73;80.71
53932;BME280;39844;52.496;13.482;2023-05-16T06:34:35;101068.03;;;11.79;80.64
53932;BME280;39844;52.496;13.482;2023-05-16T06:37:00;101076.78;;;11.80;79.19
53932;BME280;39844;52.496;13.482;2023-05-16T06:39:25;101079.41;;;11.83;79.35
53932;BME280;39844;52.496;13.482;2023-05-16T06:41:51;101089.91;;;11.90;80.30
53932;BME280;39844;52.496;13.482;2023-05-16T06:44:16;101088.16;;;11.91;79.28
53932;BME280;39844;52.496;13.482;2023-05-16T06:46:41;101090.81;;;11.89;79.45
53932;BME280;39844;52.496;13.482;2023-05-16T06:49:06;101104.81;;;11.88;78.99
53932;BME280;39844;52.496;13.482;2023-05-16T06:51:32;101107.47;;;11.85;78.67
53932;BME280;39844;52.496;13.482;2023-05-16T06:53:57;101105.72;;;11.81;78.40
53932;BME280;39844;52.496;13.482;2023-05-16T06:56:22;101103.97;;;11.79;78.25
53932;BME280;39844;52.496;13.482;2023-05-16T06:58:48;101106.59;;;11.80;78.56
53932;BME280;39844;52.496;13.482;2023-05-16T07:01:14;101107.47;;;11.84;79.08
53932;BME280;39844;52.496;13.482;2023-05-16T07:03:39;101112.75;;;11.84;77.91
53932;BME280;39844;52.496;13.482;2023-05-16T07:06:05;101120.59;;;11.88;79.10
53932;BME280;39844;52.496;13.482;2023-05-16T07:08:30;101127.59;;;11.95;78.71
53932;BME280;39844;52.496;13.482;2023-05-16T07:10:55;101128.47;;;11.96;78.33
53932;BME280;39844;52.496;13.482;2023-05-16T07:13:21;101125.84;;;11.99;78.82
53932;BME280;39844;52.496;13.482;2023-05-16T07:15:46;101129.31;;;12.02;78.49
53932;BME280;39844;52.496;13.482;2023-05-16T07:18:11;101128.47;;;12.02;77.08
53932;BME280;39844;52.496;13.482;2023-05-16T07:20:37;101131.97;;;12.07;78.00
53932;BME280;39844;52.496;13.482;2023-05-16T07:23:02;101135.44;;;12.09;77.64
53932;BME280;39844;52.496;13.482;2023-05-16T07:25:27;101133.69;;;12.10;76.43
53932;BME280;39844;52.496;13.482;2023-05-16T07:27:52;101138.06;;;12.11;78.18
53932;BME280;39844;52.496;13.482;2023-05-16T07:30:18;101142.44;;;12.13;76.50
53932;BME280;39844;52.496;13.482;2023-05-16T07:32:43;101138.94;;;12.11;76.45
53932;BME280;39844;52.496;13.482;2023-05-16T07:35:09;101142.44;;;12.16;76.47
53932;BME280;39844;52.496;13.482;2023-05-16T07:37:34;101137.16;;;12.19;76.04
53932;BME280;39844;52.496;13.482;2023-05-16T07:40:00;101137.16;;;12.24;76.36
53932;BME280;39844;52.496;13.482;2023-05-16T07:42:25;101131.84;;;12.28;76.20
53932;BME280;39844;52.496;13.482;2023-05-16T07:44:50;101140.59;;;12.36;75.66
53932;BME280;39844;52.496;13.482;2023-05-16T07:47:15;101148.47;;;12.45;75.03
53932;BME280;39844;52.496;13.482;2023-05-16T07:49:41;101144.91;;;12.54;74.72
53932;BME280;39844;52.496;13.482;2023-05-16T07:52:06;101151.00;;;12.63;73.81
53932;BME280;39844;52.496;13.482;2023-05-16T07:54:34;101142.19;;;12.71;74.09
53932;BME280;39844;52.496;13.482;2023-05-16T07:57:01;101145.66;;;12.79;73.91
53932;BME280;39844;52.496;13.482;2023-05-16T07:59:27;101146.53;;;12.75;71.75
53932;BME280;39844;52.496;13.482;2023-05-16T08:01:52;101150.97;;;12.69;72.39
53932;BME280;39844;52.496;13.482;2023-05-16T08:04:18;101164.13;;;12.71;73.19
53932;BME280;39844;52.496;13.482;2023-05-16T08:06:43;101164.13;;;12.66;72.65
53932;BME280;39844;52.496;13.482;2023-05-16T08:09:08;101162.41;;;12.62;71.72
53932;BME280;39844;52.496;13.482;2023-05-16T08:11:34;101175.59;;;12.56;72.29
53932;BME280;39844;52.496;13.482;2023-05-16T08:14:00;101183.50;;;12.56;71.57
53932;BME280;39844;52.496;13.482;2023-05-16T08:16:25;101186.13;;;12.56;72.65
53932;BME280;39844;52.496;13.482;2023-05-16T08:18:50;101187.91;;;12.54;71.61
53932;BME280;39844;52.496;13.482;2023-05-16T08:21:15;101186.19;;;12.50;71.86
53932;BME280;39844;52.496;13.482;2023-05-16T08:23:41;101189.69;;;12.49;72.67
53932;BME280;39844;52.496;13.482;2023-05-16T08:26:06;101194.97;;;12.46;72.12
53932;BME280;39844;52.496;13.482;2023-05-16T08:28:31;101203.75;;;12.42;73.15
53932;BME280;39844;52.496;13.482;2023-05-16T08:30:56;101200.28;;;12.34;72.72
53932;BME280;39844;52.496;13.482;2023-05-16T08:33:22;101197.69;;;12.27;73.02
53932;BME280;39844;52.496;13.482;2023-05-16T08:35:49;101207.31;;;12.23;73.38
53932;BME280;39844;52.496;13.482;2023-05-16T08:38:14;101205.59;;;12.19;73.08
53932;BME280;39844;52.496;13.482;2023-05-16T08:40:40;101205.59;;;12.19;73.77
53932;BME280;39844;52.496;13.482;2023-05-16T08:43:05;101212.63;;;12.20;72.95
53932;BME280;39844;52.496;13.482;2023-05-16T08:45:31;101199.47;;;12.14;73.31
53932;BME280;39844;52.496;13.482;2023-05-16T08:47:59;101207.34;;;12.16;74.12
53932;BME280;39844;52.496;13.482;2023-05-16T08:50:25;101207.38;;;12.17;73.90
53932;BME280;39844;52.496;13.482;2023-05-16T08:52:53;101211.75;;;12.17;72.70
53932;BME280;39844;52.496;13.482;2023-05-16T08:55:19;101195.94;;;12.21;72.91
53932;BME280;39844;52.496;13.482;2023-05-16T08:57:45;101202.94;;;12.27;73.14
53932;BME280;39844;52.496;13.482;2023-05-16T09:00:11;101199.44;;;12.29;73.06
53932;BME280;39844;52.496;13.482;2023-05-16T09:02:38;101193.25;;;12.36;73.02
53932;BME280;39844;52.496;13.482;2023-05-16T09:05:04;101196.72;;;12.49;72.70
53932;BME280;39844;52.496;13.482;2023-05-16T09:07:32;101204.63;;;12.44;70.22
53932;BME280;39844;52.496;13.482;2023-05-16T09:09:57;101208.16;;;12.40;70.89
53932;BME280;39844;52.496;13.482;2023-05-16T09:12:23;101202.00;;;12.41;71.17
53932;BME280;39844;52.496;13.482;2023-05-16T09:14:48;101200.22;;;12.43;70.39
53932;BME280;39844;52.496;13.482;2023-05-16T09:17:14;101207.25;;;12.50;70.38
53932;BME280;39844;52.496;13.482;2023-05-16T09:19:40;101213.31;;;12.61;70.34
53932;BME280;39844;52.496;13.482;2023-05-16T09:22:11;101215.94;;;12.64;68.85
53932;BME280;39844;52.496;13.482;2023-05-16T09:24:40;101217.72;;;12.68;69.91
53932;BME280;39844;52.496;13.482;2023-05-16T09:27:10;101218.56;;;12.72;68.45
53932;BME280;39844;52.496;13.482;2023-05-16T09:29:35;101211.50;;;12.79;68.54
53932;BME280;39844;52.496;13.482;2023-05-16T09:32:08;101216.78;;;12.79;67.97
53932;BME280;39844;52.496;13.482;2023-05-16T09:34:37;101220.28;;;12.75;69.31
53932;BME280;39844;52.496;13.482;2023-05-16T09:37:02;101231.69;;;12.77;69.74
53932;BME280;39844;52.496;13.482;2023-05-16T09:39:28;101215.91;;;12.78;69.33
53932;BME280;39844;52.496;13.482;2023-05-16T09:41:53;101233.44;;;12.81;68.85
53932;BME280;39844;52.496;13.482;2023-05-16T09:44:18;101228.16;;;12.84;69.13
53932;BME280;39844;52.496;13.482;2023-05-16T09:46:44;101236.94;;;12.86;67.82
53932;BME280;39844;52.496;13.482;2023-05-16T09:49:12;101242.22;;;12.80;67.80
53932;BME280;39844;52.496;13.482;2023-05-16T09:51:39;101242.22;;;12.80;67.52
53932;BME280;39844;52.496;13.482;2023-05-16T09:54:06;101240.47;;;12.83;66.76
53932;BME280;39844;52.496;13.482;2023-05-16T09:56:32;101239.50;;;13.01;67.38
53932;BME280;39844;52.496;13.482;2023-05-16T09:58:57;101238.63;;;13.06;65.73
53932;BME280;39844;52.496;13.482;2023-05-16T10:01:24;101243.84;;;13.11;66.33
53932;BME280;39844;52.496;13.482;2023-05-16T10:03:49;101243.88;;;13.08;64.91
53932;BME280;39844;52.496;13.482;2023-05-16T10:06:15;101244.75;;;13.11;65.62
53932;BME280;39844;52.496;13.482;2023-05-16T10:08:42;101242.06;;;13.13;65.14
53932;BME280;39844;52.496;13.482;2023-05-16T10:11:08;101253.50;;;13.13;65.21
53932;BME280;39844;52.496;13.482;2023-05-16T10:13:35;101246.50;;;13.08;64.64
53932;BME280;39844;52.496;13.482;2023-05-16T10:16:09;101249.13;;;13.08;65.42
53932;BME280;39844;52.496;13.482;2023-05-16T10:18:37;101253.53;;;13.10;65.63
53932;BME280;39844;52.496;13.482;2023-05-16T10:21:07;101250.88;;;13.03;65.21
53932;BME280;39844;52.496;13.482;2023-05-16T10:23:34;101254.41;;;13.03;65.61
53932;BME280;39844;52.496;13.482;2023-05-16T10:26:02;101247.41;;;12.98;65.48
53932;BME280;39844;52.496;13.482;2023-05-16T10:28:28;101243.91;;;12.93;67.28
53932;BME280;39844;52.496;13.482;2023-05-16T10:30:54;101248.28;;;12.98;68.98
53932;BME280;39844;52.496;13.482;2023-05-16T10:33:19;101253.53;;;13.00;67.08
53932;BME280;39844;52.496;13.482;2023-05-16T10:35:45;101253.56;;;13.01;67.42
53932;BME280;39844;52.496;13.482;2023-05-16T10:38:13;101254.38;;;13.05;67.80
53932;BME280;39844;52.496;13.482;2023-05-16T10:40:40;101260.56;;;13.07;67.59
53932;BME280;39844;52.496;13.482;2023-05-16T10:43:07;101263.16;;;13.13;67.45
53932;BME280;39844;52.496;13.482;2023-05-16T10:45:34;101264.75;;;13.38;67.59
53932;BME280;39844;52.496;13.482;2023-05-16T10:48:04;101261.13;;;13.57;66.15
53932;BME280;39844;52.496;13.482;2023-05-16T10:50:31;101266.34;;;13.63;65.49
53932;BME280;39844;52.496;13.482;2023-05-16T10:53:17;101264.63;;;13.59;65.05
53932;BME280;39844;52.496;13.482;2023-05-16T11:06:27;101288.69;;;13.06;67.32
53932;BME280;39844;52.496;13.482;2023-05-16T11:16:50;101295.88;;;12.57;66.82
53932;BME280;39844;52.496;13.482;2023-05-16T11:19:43;101294.09;;;12.65;66.87
53932;BME280;39844;52.496;13.482;2023-05-16T11:25:02;101300.16;;;12.89;64.73
53932;BME280;39844;52.496;13.482;2023-05-16T11:27:41;101300.13;;;12.95;63.15
53932;BME280;39844;52.496;13.482;2023-05-16T11:30:14;101283.41;;;13.06;62.98
53932;BME280;39844;52.496;13.482;2023-05-16T11:32:42;101295.63;;;13.24;62.66
53932;BME280;39844;52.496;13.482;2023-05-16T11:35:10;101293.75;;;13.41;61.64
53932;BME280;39844;52.496;13.482;2023-05-16T11:37:36;101291.97;;;13.43;61.58
53932;BME280;39844;52.496;13.482;2023-05-16T11:40:03;101291.94;;;13.48;61.48
53932;BME280;39844;52.496;13.482;2023-05-16T11:42:34;101289.31;;;13.46;61.03
53932;BME280;39844;52.496;13.482;2023-05-16T11:45:19;101292.91;;;13.39;61.46
53932;BME280;39844;52.496;13.482;2023-05-16T11:47:46;101298.22;;;13.35;62.11
53932;BME280;39844;52.496;13.482;2023-05-16T11:50:13;101292.94;;;13.30;61.24
53932;BME280;39844;52.496;13.482;2023-05-16T11:52:39;101294.69;;;13.34;60.52
53932;BME280;39844;52.496;13.482;2023-05-16T11:55:07;101295.47;;;13.47;60.93
53932;BME280;39844;52.496;13.482;2023-05-16T11:57:33;101298.84;;;13.67;61.06
53932;BME280;39844;52.496;13.482;2023-05-16T12:00:03;101291.28;;;14.26;59.64
53932;BME280;39844;52.496;13.482;2023-05-16T12:02:28;101292.84;;;14.50;55.68
53932;BME280;39844;52.496;13.482;2023-05-16T12:04:54;101289.06;;;14.71;56.45
53932;BME280;39844;52.496;13.482;2023-05-16T12:07:19;101292.59;;;14.71;54.46
53932;BME280;39844;52.496;13.482;2023-05-16T12:09:51;101288.28;;;14.64;55.51
53932;BME280;39844;52.496;13.482;2023-05-16T12:12:19;101287.50;;;14.56;54.45
53932;BME280;39844;52.496;13.482;2023-05-16T12:14:44;101291.97;;;14.48;55.69
53932;BME280;39844;52.496;13.482;2023-05-16T12:17:10;101298.19;;;14.42;55.84
53932;BME280;39844;52.496;13.482;2023-05-16T12:19:35;101297.38;;;14.39;56.80
53932;BME280;39844;52.496;13.482;2023-05-16T12:22:00;101299.22;;;14.31;56.24
53932;BME280;39844;52.496;13.482;2023-05-16T12:24:29;101311.50;;;14.32;56.38
53932;BME280;39844;52.496;13.482;2023-05-16T12:26:55;101312.38;;;14.35;56.98
53932;BME280;39844;52.496;13.482;2023-05-16T12:29:21;101309.78;;;14.31;55.85
53932;BME280;39844;52.496;13.482;2023-05-16T12:31:46;101322.13;;;14.26;55.88
53932;BME280;39844;52.496;13.482;2023-05-16T12:34:18;101316.84;;;14.24;55.33
53932;BME280;39844;52.496;13.482;2023-05-16T12:36:44;101323.88;;;14.24;54.76
53932;BME280;39844;52.496;13.482;2023-05-16T12:39:11;101321.31;;;14.16;55.01
53932;BME280;39844;52.496;13.482;2023-05-16T12:41:40;101323.84;;;14.27;56.38
53932;BME280;39844;52.496;13.482;2023-05-16T12:44:09;101329.13;;;14.28;55.05
53932;BME280;39844;52.496;13.482;2023-05-16T12:46:35;101333.53;;;14.34;56.50
53932;BME280;39844;52.496;13.482;2023-05-16T12:49:04;101322.00;;;14.39;56.38
53932;BME280;39844;52.496;13.482;2023-05-16T12:51:30;101313.88;;;14.57;56.00
53932;BME280;39844;52.496;13.482;2023-05-16T12:53:55;101314.63;;;14.70;54.33
53932;BME280;39844;52.496;13.482;2023-05-16T12:56:21;101301.31;;;14.78;53.90
53932;BME280;39844;52.496;13.482;2023-05-16T12:58:49;101299.97;;;15.13;54.26
53932;BME280;39844;52.496;13.482;2023-05-16T13:01:15;101297.81;;;15.41;53.26
53932;BME280;39844;52.496;13.482;2023-05-16T13:03:40;101293.94;;;15.68;51.30
53932;BME280;39844;52.496;13.482;2023-05-16T13:06:05;101291.81;;;15.90;50.04
53932;BME280;39844;52.496;13.482;2023-05-16T13:08:31;101283.84;;;15.91;48.56